createdAt,value
2018-01-31T01:52:21.901Z,100836.20
2018-01-31T01:54:50.164Z,100839.05
2018-01-31T01:57:18.505Z,100833.73
2018-01-31T01:59:46.821Z,100827.06
2018-01-31T02:02:15.157Z,100818.30
2018-01-31T02:04:43.465Z,100813.91
2018-01-31T02:07:11.801Z,100808.92
2018-01-31T02:09:40.113Z,100798.90
2018-01-31T02:12:08.450Z,100790.77
2018-01-31T02:14:36.761Z,100785.73
2018-01-31T02:17:05.101Z,100772.11
2018-01-31T02:19:33.413Z,100766.60
2018-01-31T02:22:01.750Z,100756.76
2018-01-31T02:24:30.061Z,100760.78
2018-01-31T02:26:58.399Z,100749.05
2018-01-31T02:29:26.709Z,100747.62
2018-01-31T02:31:55.046Z,100740.15
2018-01-31T02:34:23.362Z,100734.53
2018-01-31T02:36:51.701Z,100738.11
2018-01-31T02:39:31.789Z,100727.59
2018-01-31T02:42:00.130Z,100721.00
2018-01-31T02:44:28.453Z,100709.05
2018-01-31T02:46:56.793Z,100694.20
2018-01-31T02:49:25.110Z,100673.39
2018-01-31T02:51:53.445Z,100670.45
2018-01-31T02:54:21.761Z,100643.20
2018-01-31T02:56:50.098Z,100633.87
2018-01-31T02:59:18.418Z,100641.31
2018-01-31T03:01:46.746Z,100632.86
2018-01-31T03:04:15.053Z,100623.73
2018-01-31T03:06:43.373Z,100621.89
2018-01-31T03:09:11.705Z,100604.62
2018-01-31T03:11:40.025Z,100602.34
2018-01-31T03:14:08.369Z,100602.14
2018-01-31T03:16:36.689Z,100594.16
2018-01-31T03:19:05.026Z,100585.37
2018-01-31T03:21:33.346Z,100577.80
2018-01-31T03:24:01.677Z,100575.30
2018-01-31T03:26:29.997Z,100566.22
2018-01-31T03:28:58.331Z,100559.04
2018-01-31T03:31:26.645Z,100553.10
2018-01-31T03:33:54.981Z,100543.44
2018-01-31T03:36:23.293Z,100542.23
2018-01-31T03:38:51.629Z,100531.79
2018-01-31T03:41:19.937Z,100529.92
2018-01-31T03:43:48.273Z,100522.85
2018-01-31T03:46:16.589Z,100520.49
2018-01-31T03:48:44.916Z,100509.30
2018-01-31T03:51:13.233Z,100498.89
2018-01-31T03:53:41.569Z,100495.28
2018-01-31T03:56:09.885Z,100487.77
2018-01-31T03:58:38.247Z,100477.26
2018-01-31T04:01:06.541Z,100477.95
2018-01-31T04:03:34.876Z,100458.11
2018-01-31T04:06:03.192Z,100452.00
2018-01-31T04:08:31.529Z,100448.09
2018-01-31T04:10:59.901Z,100442.69
2018-01-31T04:13:28.237Z,100439.03
2018-01-31T04:15:56.561Z,100436.23
2018-01-31T04:18:24.898Z,100436.67
2018-01-31T04:20:53.209Z,100431.20
2018-01-31T04:23:21.548Z,100420.81
2018-01-31T04:25:49.869Z,100412.47
2018-01-31T04:28:18.206Z,100411.58
2018-01-31T04:30:46.527Z,100398.61
2018-01-31T04:33:14.860Z,100389.30
2018-01-31T04:35:43.179Z,100388.95
2018-01-31T04:38:11.517Z,100378.98
2018-01-31T04:40:39.828Z,100372.70
2018-01-31T04:43:08.172Z,100358.91
2018-01-31T04:45:36.485Z,100351.94
2018-01-31T04:48:04.820Z,100341.06
2018-01-31T04:50:33.138Z,100341.74
2018-01-31T04:53:01.482Z,100340.41
2018-01-31T04:55:29.801Z,100325.47
2018-01-31T04:57:58.142Z,100327.70
2018-01-31T05:00:26.457Z,100325.80
2018-01-31T05:02:54.792Z,100318.86
2018-01-31T05:05:23.113Z,100316.55
2018-01-31T05:07:51.434Z,100306.45
2018-01-31T05:10:19.777Z,100296.49
2018-01-31T05:12:48.089Z,100288.67
2018-01-31T05:15:16.421Z,100289.09
2018-01-31T05:17:44.737Z,100272.94
2018-01-31T05:20:13.079Z,100264.41
2018-01-31T05:22:41.398Z,100257.00
2018-01-31T05:25:09.737Z,100256.63
2018-01-31T05:27:38.049Z,100268.19
2018-01-31T05:30:06.393Z,100256.23
2018-01-31T05:32:34.713Z,100245.58
2018-01-31T05:35:03.050Z,100244.78
2018-01-31T05:37:31.365Z,100252.34
2018-01-31T05:39:59.705Z,100241.13
2018-01-31T05:42:28.026Z,100232.53
2018-01-31T05:44:56.377Z,100219.26
2018-01-31T05:47:24.690Z,100219.38
2018-01-31T05:49:53.034Z,100212.44
2018-01-31T05:52:21.348Z,100208.40
2018-01-31T05:54:49.689Z,100198.66
2018-01-31T05:57:18.017Z,100195.38
2018-01-31T05:59:46.352Z,100192.59
2018-01-31T06:02:14.664Z,100180.75
2018-01-31T06:04:43.017Z,100179.13
2018-01-31T06:07:11.333Z,100177.77
2018-01-31T06:09:39.677Z,100171.44
2018-01-31T06:12:08.002Z,100164.49
2018-01-31T06:14:36.341Z,100156.25
2018-01-31T06:17:05.557Z,100144.44
2018-01-31T06:19:33.893Z,100140.03
2018-01-31T06:22:02.222Z,100132.83
2018-01-31T06:24:30.567Z,100119.66
2018-01-31T06:26:58.889Z,100119.67
2018-01-31T06:29:27.236Z,100117.20
2018-01-31T06:31:55.652Z,100111.33
2018-01-31T06:34:24.013Z,100107.10
2018-01-31T06:39:42.069Z,100088.92
2018-01-31T06:42:10.446Z,100086.77
2018-01-31T06:44:38.773Z,100091.22
2018-01-31T06:47:07.098Z,100082.84
2018-01-31T06:49:35.437Z,100066.17
2018-01-31T06:52:03.761Z,100056.89
2018-01-31T06:54:32.110Z,100065.34
2018-01-31T06:57:00.650Z,100056.78
2018-01-31T06:59:28.993Z,100048.91
2018-01-31T07:01:57.318Z,100045.03
2018-01-31T07:04:25.668Z,100045.12
2018-01-31T07:06:53.989Z,100036.67
2018-01-31T07:09:22.342Z,100036.02
2018-01-31T07:11:50.916Z,100029.73
2018-01-31T07:14:19.310Z,100023.67
2018-01-31T07:16:47.622Z,100015.56
2018-01-31T07:19:15.965Z,100017.59
2018-01-31T07:21:44.290Z,100005.89
2018-01-31T07:24:12.662Z,99998.39
2018-01-31T07:26:40.982Z,99990.84
2018-01-31T07:29:09.307Z,99993.02
2018-01-31T07:31:37.658Z,99981.86
2018-01-31T07:34:05.978Z,99977.24
2018-01-31T07:36:34.312Z,99977.27
2018-01-31T07:39:02.672Z,99967.68
2018-01-31T07:41:30.969Z,99975.09
2018-01-31T07:43:59.296Z,99977.27
2018-01-31T07:46:27.629Z,99961.84
2018-01-31T07:48:55.945Z,99954.48
2018-01-31T07:51:24.288Z,99958.41
2018-01-31T07:53:52.978Z,99948.31
2018-01-31T07:56:21.310Z,99943.77
2018-01-31T07:58:49.626Z,99932.30
2018-01-31T08:01:17.949Z,99933.75
2018-01-31T08:03:46.262Z,99934.42
2018-01-31T08:06:14.589Z,99930.98
2018-01-31T08:08:42.901Z,99927.10
2018-01-31T08:11:11.225Z,99922.70
2018-01-31T08:13:39.533Z,99916.92
2018-01-31T08:16:07.862Z,99907.27
2018-01-31T08:18:36.177Z,99918.34
2018-01-31T08:21:07.348Z,99904.95
2018-01-31T08:23:35.649Z,99900.03
2018-01-31T08:26:04.017Z,99907.08
2018-01-31T08:28:32.301Z,99895.42
2018-01-31T08:31:00.636Z,99886.30
2018-01-31T08:33:29.777Z,99884.95
2018-01-31T08:35:58.114Z,99885.88
2018-01-31T08:38:26.423Z,99875.81
2018-01-31T08:40:54.754Z,99878.95
2018-01-31T08:43:23.062Z,99872.95
2018-01-31T08:45:51.385Z,99866.73
2018-01-31T08:48:19.691Z,99861.16
2018-01-31T08:50:48.022Z,99863.45
2018-01-31T08:53:16.330Z,99865.19
2018-01-31T08:55:44.654Z,99858.83
2018-01-31T08:58:12.962Z,99860.39
2018-01-31T09:00:41.294Z,99863.96
2018-01-31T09:03:09.610Z,99852.33
2018-01-31T09:05:37.941Z,99856.33
2018-01-31T09:08:06.245Z,99858.75
2018-01-31T09:10:34.570Z,99843.41
2018-01-31T09:13:02.886Z,99835.91
2018-01-31T09:15:31.214Z,99832.28
2018-01-31T09:17:59.521Z,99817.72
2018-01-31T09:20:27.853Z,99817.03
2018-01-31T09:22:56.166Z,99809.55
2018-01-31T09:25:24.497Z,99804.61
2018-01-31T09:27:52.801Z,99792.99
2018-01-31T09:30:21.106Z,99794.95
2018-01-31T09:32:49.434Z,99790.48
2018-01-31T09:35:17.737Z,99788.16
2018-01-31T09:37:46.067Z,99786.08
2018-01-31T09:40:14.376Z,99776.78
2018-01-31T09:42:42.702Z,99778.50
2018-01-31T09:45:11.013Z,99764.87
2018-01-31T09:47:39.345Z,99775.26
2018-01-31T09:50:07.655Z,99777.51
2018-01-31T09:52:36.022Z,99767.31
2018-01-31T09:55:04.282Z,99768.23
2018-01-31T09:57:32.617Z,99763.50
2018-01-31T10:00:00.931Z,99762.84
2018-01-31T10:02:29.259Z,99762.75
2018-01-31T10:04:57.570Z,99749.91
2018-01-31T10:07:25.897Z,99746.09
2018-01-31T10:09:54.200Z,99750.53
2018-01-31T10:12:22.541Z,99750.16
2018-01-31T10:14:50.846Z,99738.70
2018-01-31T10:17:19.178Z,99745.25
2018-01-31T10:19:47.486Z,99736.45
2018-01-31T10:22:15.820Z,99731.58
2018-01-31T10:24:44.122Z,99722.23
2018-01-31T10:27:12.453Z,99709.79
2018-01-31T10:29:40.766Z,99701.14
2018-01-31T10:32:09.102Z,99704.12
2018-01-31T10:34:37.418Z,99695.67
2018-01-31T10:37:05.763Z,99684.42
2018-01-31T10:39:34.078Z,99684.89
2018-01-31T10:42:02.417Z,99675.94
2018-01-31T10:44:30.730Z,99674.55
2018-01-31T10:46:59.070Z,99660.83
2018-01-31T10:49:27.387Z,99649.36
2018-01-31T10:51:55.725Z,99657.63
2018-01-31T10:57:28.965Z,99632.70
2018-01-31T10:59:20.701Z,99634.97
2018-01-31T11:01:49.041Z,99621.89
2018-01-31T11:04:17.361Z,99629.27
2018-01-31T11:06:45.697Z,99611.62
2018-01-31T11:09:14.018Z,99599.23
2018-01-31T11:11:42.353Z,99599.98
2018-01-31T11:14:10.665Z,99600.73
2018-01-31T11:16:39.002Z,99581.53
2018-01-31T11:19:07.327Z,99577.35
2018-01-31T11:21:35.661Z,99561.95
2018-01-31T11:24:03.981Z,99556.95
2018-01-31T11:26:32.313Z,99553.40
2018-01-31T11:29:00.654Z,99553.59
2018-01-31T11:31:28.970Z,99553.98
2018-01-31T11:33:57.305Z,99553.98
2018-01-31T11:36:25.622Z,99544.14
2018-01-31T11:38:53.970Z,99538.98
2018-01-31T11:41:22.297Z,99541.39
2018-01-31T11:43:50.633Z,99533.97
2018-01-31T11:46:18.946Z,99524.20
2018-01-31T11:48:47.287Z,99523.47
2018-01-31T11:51:15.604Z,99520.17
2018-01-31T11:53:43.946Z,99513.47
2018-01-31T11:56:12.257Z,99509.98
2018-01-31T11:58:40.589Z,99516.47
2018-01-31T12:01:08.905Z,99499.44
2018-01-31T12:03:37.246Z,99496.91
2018-01-31T12:06:05.564Z,99482.72
2018-01-31T12:08:33.901Z,99477.34
2018-01-31T12:11:02.217Z,99461.80
2018-01-31T12:16:48.181Z,99455.22
2018-01-31T12:22:24.209Z,99431.91
2018-01-31T12:25:04.349Z,99416.70
2018-01-31T12:27:44.558Z,99413.54
2018-01-31T12:30:24.555Z,99399.39
2018-01-31T12:33:04.690Z,99396.44
2018-01-31T12:35:44.755Z,99398.89
2018-01-31T12:38:24.806Z,99383.45
2018-01-31T12:40:52.569Z,99374.25
2018-01-31T12:43:20.374Z,99392.06
2018-01-31T12:45:48.157Z,99371.37
2018-01-31T12:48:28.245Z,99381.86
2018-01-31T12:51:08.197Z,99376.79
2018-01-31T12:53:48.353Z,99372.85
2018-01-31T12:59:30.258Z,99366.53
2018-01-31T13:02:10.430Z,99368.80
2018-01-31T13:04:50.466Z,99357.02
2018-01-31T13:07:22.148Z,99364.35
2018-01-31T13:10:02.097Z,99355.94
2018-01-31T13:12:42.109Z,99344.01
2018-01-31T13:15:22.082Z,99345.87
2018-01-31T13:17:57.617Z,99343.06
2018-01-31T13:20:37.366Z,99335.59
2018-01-31T13:23:05.416Z,99341.86
2018-01-31T13:25:45.310Z,99342.41
2018-01-31T13:28:30.910Z,99343.76
2018-01-31T13:31:15.797Z,99325.69
2018-01-31T13:33:55.674Z,99319.64
2018-01-31T13:36:35.578Z,99304.13
2018-01-31T13:42:23.729Z,99375.53
2018-01-31T13:45:03.534Z,99372.62
2018-01-31T13:47:43.365Z,99370.43
2018-01-31T13:50:23.083Z,99368.61
2018-01-31T13:53:03.850Z,99361.45
2018-01-31T13:55:43.781Z,99349.55
2018-01-31T13:58:23.702Z,99345.55
2018-01-31T14:01:03.518Z,99340.05
2018-01-31T14:03:56.432Z,99343.01
2018-01-31T14:06:36.321Z,99330.94
2018-01-31T14:09:16.138Z,99334.59
2018-01-31T14:11:55.878Z,99336.73
2018-01-31T14:14:35.689Z,99329.05
2018-01-31T14:17:15.574Z,99333.11
2018-01-31T14:19:55.513Z,99330.28
2018-01-31T14:22:35.304Z,99327.54
2018-01-31T14:25:04.870Z,99322.75
2018-01-31T14:27:44.613Z,99310.15
2018-01-31T14:30:24.273Z,99305.42
2018-01-31T14:33:04.941Z,99299.13
2018-01-31T14:35:44.898Z,99302.59
2018-01-31T14:38:12.541Z,99285.23
2018-01-31T14:40:40.058Z,99297.70
2018-01-31T14:43:07.549Z,99299.55
2018-01-31T14:45:35.105Z,99285.59
2018-01-31T14:48:02.585Z,99274.96
2018-01-31T14:50:30.097Z,99273.11
2018-01-31T14:52:57.594Z,99275.69
2018-01-31T14:55:25.105Z,99268.56
2018-01-31T14:57:52.593Z,99262.91
2018-01-31T15:00:20.790Z,99257.28
2018-01-31T15:02:48.239Z,99268.56
2018-01-31T15:05:15.753Z,99265.10
2018-01-31T15:07:43.241Z,99260.35
2018-01-31T15:10:11.374Z,99261.41
2018-01-31T15:12:39.222Z,99257.55
2018-01-31T15:15:07.911Z,99252.93
2018-01-31T15:17:35.456Z,99240.02
2018-01-31T15:20:02.918Z,99242.00
2018-01-31T15:22:30.409Z,99232.92
2018-01-31T15:24:57.925Z,99234.31
2018-01-31T15:27:25.418Z,99230.61
2018-01-31T15:29:52.938Z,99217.84
2018-01-31T15:32:20.529Z,99213.80
2018-01-31T15:34:48.045Z,99205.00
2018-01-31T15:37:15.573Z,99206.25
2018-01-31T15:39:44.013Z,99194.95
2018-01-31T15:42:11.796Z,99192.20
2018-01-31T15:44:39.293Z,99184.69
2018-01-31T15:47:06.791Z,99183.98
2018-01-31T15:49:34.309Z,99185.48
2018-01-31T15:52:01.816Z,99177.30
2018-01-31T15:54:31.036Z,99180.98
2018-01-31T15:56:59.069Z,99179.13
2018-01-31T15:59:26.593Z,99169.09
2018-01-31T16:01:54.169Z,99179.70
2018-01-31T16:04:21.686Z,99179.13
2018-01-31T16:06:49.246Z,99172.48
2018-01-31T16:09:16.752Z,99175.87
2018-01-31T16:11:44.249Z,99176.83
2018-01-31T16:14:11.737Z,99162.95
2018-01-31T16:16:39.797Z,99154.67
2018-01-31T16:19:19.702Z,99160.94
2018-01-31T16:21:47.777Z,99151.92
2018-01-31T16:24:16.435Z,99151.97
2018-01-31T16:26:44.470Z,99139.38
2018-01-31T16:29:24.733Z,99130.53
2018-01-31T16:32:04.503Z,99134.96
2018-01-31T16:34:32.544Z,99120.59
2018-01-31T16:37:00.856Z,99132.20
2018-01-31T16:39:29.165Z,99137.19
2018-01-31T16:41:57.193Z,99139.30
2018-01-31T16:44:25.246Z,99132.25
2018-01-31T16:46:53.360Z,99131.58
2018-01-31T16:49:21.393Z,99129.67
2018-01-31T16:51:49.453Z,99130.84
2018-01-31T16:54:17.473Z,99131.63
2018-01-31T16:56:45.529Z,99127.25
2018-01-31T16:59:13.571Z,99129.70
2018-01-31T17:01:41.612Z,99125.04
2018-01-31T17:04:09.646Z,99114.63
2018-01-31T17:06:37.693Z,99117.80
2018-01-31T17:09:05.729Z,99117.73
2018-01-31T17:11:33.782Z,99107.24
2018-01-31T17:14:02.103Z,99104.20
2018-01-31T17:16:30.434Z,99104.34
2018-01-31T17:18:58.741Z,99102.25
2018-01-31T17:21:27.069Z,99096.36
2018-01-31T17:23:55.381Z,99087.83
2018-01-31T17:26:23.714Z,99093.72
2018-01-31T17:28:52.029Z,99092.29
2018-01-31T17:31:21.438Z,99092.45
2018-01-31T17:33:49.799Z,99095.23
2018-01-31T17:36:18.136Z,99158.64
2018-01-31T17:38:46.444Z,99171.92
2018-01-31T17:41:14.773Z,99165.22
2018-01-31T17:43:43.086Z,99158.97
2018-01-31T17:46:12.761Z,99151.11
2018-01-31T17:48:41.857Z,99160.45
2018-01-31T17:51:10.249Z,99151.25
2018-01-31T17:53:38.552Z,99152.83
2018-01-31T17:56:06.882Z,99159.41
2018-01-31T17:58:35.193Z,99168.11
2018-01-31T18:01:03.541Z,99164.55
2018-01-31T18:03:31.853Z,99184.74
2018-01-31T18:06:00.200Z,99184.22
2018-01-31T18:08:28.504Z,99188.12
2018-01-31T18:10:56.864Z,99189.72
2018-01-31T18:13:25.192Z,99193.49
2018-01-31T18:15:54.428Z,99198.66
2018-01-31T18:18:22.734Z,99186.72
2018-01-31T18:20:51.070Z,99190.97
2018-01-31T18:23:19.519Z,99193.28
2018-01-31T18:25:48.622Z,99182.51
2018-01-31T18:28:16.929Z,99172.35
2018-01-31T18:30:45.265Z,99167.98
2018-01-31T18:33:13.573Z,99164.92
2018-01-31T18:35:42.864Z,99159.00
2018-01-31T18:38:11.185Z,99155.87
2018-01-31T18:40:39.533Z,99160.53
2018-01-31T18:43:07.842Z,99149.77
2018-01-31T18:45:36.196Z,99145.23
2018-01-31T18:48:04.546Z,99148.97
2018-01-31T18:50:32.854Z,99139.16
2018-01-31T18:53:01.186Z,99138.71
2018-01-31T18:55:29.494Z,99126.17
2018-01-31T18:57:57.821Z,99129.20
2018-01-31T19:00:26.127Z,99122.34
2018-01-31T19:02:54.456Z,99119.09
2018-01-31T19:05:22.768Z,99120.77
2018-01-31T19:07:51.096Z,99116.36
2018-01-31T19:10:19.410Z,99108.87
2018-01-31T19:12:47.737Z,99113.16
2018-01-31T19:15:16.093Z,99124.94
2018-01-31T19:17:44.413Z,99122.73
2018-01-31T19:20:12.725Z,99121.78
2018-01-31T19:22:41.063Z,99131.23
2018-01-31T19:25:09.442Z,99127.77
2018-01-31T19:27:37.773Z,99128.58
2018-01-31T19:30:06.091Z,99134.41
2018-01-31T19:32:34.674Z,99125.46
2018-01-31T19:35:03.065Z,99122.96
2018-01-31T19:37:31.586Z,99115.02
2018-01-31T19:39:59.933Z,99119.99
2018-01-31T19:42:28.257Z,99115.52
2018-01-31T19:44:56.750Z,99116.80
2018-01-31T19:47:25.155Z,99124.83
2018-01-31T19:49:53.733Z,99125.20
2018-01-31T19:52:22.224Z,99118.82
2018-01-31T19:54:51.820Z,99108.39
2018-01-31T19:57:20.346Z,99111.99
2018-01-31T19:59:48.769Z,99102.70
2018-01-31T20:02:17.275Z,99097.48
2018-01-31T20:04:45.565Z,99101.42
2018-01-31T20:07:13.956Z,99093.95
2018-01-31T20:09:42.483Z,99088.97
2018-01-31T20:12:11.109Z,99094.59
2018-01-31T20:14:40.082Z,99093.63
2018-01-31T20:17:08.409Z,99100.39
2018-01-31T20:19:36.748Z,99107.98
2018-01-31T20:22:05.072Z,99109.41
2018-01-31T20:24:33.490Z,99110.44
2018-01-31T20:27:01.834Z,99123.60
2018-01-31T20:29:30.170Z,99132.55
2018-01-31T20:31:58.525Z,99133.58
2018-01-31T20:34:26.866Z,99116.08
2018-01-31T20:36:55.201Z,99118.39
2018-01-31T20:39:23.530Z,99110.63
2018-01-31T20:41:51.889Z,99111.09
2018-01-31T20:44:20.188Z,99109.73
2018-01-31T20:46:48.530Z,99101.68
2018-01-31T20:49:16.846Z,99111.42
2018-01-31T20:51:45.201Z,99114.77
2018-01-31T20:54:13.658Z,99125.19
2018-01-31T20:56:42.001Z,99116.85
2018-01-31T20:59:10.338Z,99122.19
2018-01-31T21:01:38.675Z,99132.77
2018-01-31T21:04:07.013Z,99125.41
2018-01-31T21:06:35.317Z,99125.98
2018-01-31T21:09:03.664Z,99112.52
2018-01-31T21:11:32.110Z,99111.92
2018-01-31T21:14:00.463Z,99112.39
2018-01-31T21:16:28.775Z,99110.89
2018-01-31T21:18:57.105Z,99108.94
2018-01-31T21:21:25.569Z,99102.28
2018-01-31T21:23:53.918Z,99098.31
2018-01-31T21:26:22.262Z,99097.44
2018-01-31T21:28:50.604Z,99094.49
2018-01-31T21:31:18.988Z,99099.28
2018-01-31T21:33:47.309Z,99098.71
2018-01-31T21:36:15.706Z,99106.98
2018-01-31T21:38:44.042Z,99102.63
2018-01-31T21:41:12.349Z,99105.73
2018-01-31T21:43:40.693Z,99101.88
2018-01-31T21:46:10.465Z,99105.90
2018-01-31T21:48:38.792Z,99114.63
2018-01-31T21:51:07.107Z,99104.24
2018-01-31T21:53:35.442Z,99098.52
2018-01-31T21:56:03.745Z,99092.99
2018-01-31T21:58:32.073Z,99079.49
2018-01-31T22:01:00.386Z,99073.13
2018-01-31T22:03:28.741Z,99084.00
2018-01-31T22:05:57.069Z,99082.72
2018-01-31T22:08:25.409Z,99082.10
2018-01-31T22:10:53.723Z,99085.92
2018-01-31T22:13:22.057Z,99083.34
2018-01-31T22:15:50.381Z,99096.75
2018-01-31T22:18:18.713Z,99100.91
2018-01-31T22:20:47.026Z,99109.49
2018-01-31T22:23:15.358Z,99129.61
2018-01-31T22:25:43.966Z,99125.86
2018-01-31T22:28:12.305Z,99112.55
2018-01-31T22:30:40.618Z,99134.78
2018-01-31T22:33:08.981Z,99122.86
2018-01-31T22:35:37.261Z,99121.47
2018-01-31T22:38:05.703Z,99132.03
2018-01-31T22:40:34.028Z,99135.14
2018-01-31T22:43:02.349Z,99131.93
2018-01-31T22:45:30.662Z,99114.22
2018-01-31T22:47:58.994Z,99128.89
2018-01-31T22:50:27.306Z,99108.11
2018-01-31T22:52:55.617Z,99118.30
2018-01-31T22:55:23.951Z,99113.34
2018-01-31T22:57:52.270Z,99113.34
2018-01-31T23:00:22.461Z,99116.87
2018-01-31T23:02:50.765Z,99122.45
2018-01-31T23:05:19.095Z,99126.41
2018-01-31T23:07:47.402Z,99123.72
2018-01-31T23:10:15.725Z,99138.30
2018-01-31T23:12:49.646Z,99141.95
2018-01-31T23:15:17.969Z,99145.66
2018-01-31T23:17:51.974Z,99145.02
2018-01-31T23:20:20.301Z,99137.97
2018-01-31T23:22:48.605Z,99130.83
2018-01-31T23:25:16.942Z,99138.69
2018-01-31T23:27:45.254Z,99134.56
2018-01-31T23:30:13.593Z,99135.37
2018-01-31T23:32:41.913Z,99143.16
2018-01-31T23:35:10.239Z,99140.76
2018-01-31T23:37:38.550Z,99122.38
2018-01-31T23:40:06.878Z,99125.61
2018-01-31T23:42:35.194Z,99123.27
2018-01-31T23:45:03.513Z,99119.75
2018-01-31T23:47:31.823Z,99132.96
2018-01-31T23:50:00.153Z,99132.06
2018-01-31T23:52:28.461Z,99126.84
2018-01-31T23:54:56.794Z,99128.68
2018-01-31T23:57:25.099Z,99130.85
2018-01-31T23:59:53.430Z,99134.15
